createdAt,value
2023-01-01T00:00:32.134Z,40.10
2023-01-01T00:03:17.379Z,62.55
2023-01-01T00:06:10.817Z,47.33
2023-01-01T00:09:14.336Z,39.35
2023-01-01T00:12:00.100Z,38.85
2023-01-01T00:14:45.384Z,40.65
2023-01-01T00:17:31.428Z,37.42
2023-01-01T00:20:16.782Z,37.45
2023-01-01T00:23:02.423Z,36.95
2023-01-01T00:25:47.492Z,37.67
2023-01-01T00:28:32.719Z,35.67
2023-01-01T00:31:20.983Z,38.88
2023-01-01T00:34:06.138Z,33.70
2023-01-01T00:36:51.484Z,34.28
2023-01-01T00:39:36.977Z,29.50
2023-01-01T00:42:22.505Z,36.60
2023-01-01T00:45:08.320Z,34.30
2023-01-01T00:47:54.354Z,31.17
2023-01-01T00:50:39.728Z,31.48
2023-01-01T00:53:25.104Z,28.30
2023-01-01T00:56:10.574Z,30.77
2023-01-01T00:59:00.613Z,28.73
2023-01-01T01:01:47.233Z,23.25
2023-01-01T01:04:32.557Z,23.35
2023-01-01T01:07:17.849Z,18.75
2023-01-01T01:10:03.665Z,24.40
2023-01-01T01:12:48.948Z,21.60
2023-01-01T01:15:34.268Z,21.95
2023-01-01T01:18:19.689Z,18.33
2023-01-01T01:21:05.710Z,17.58
2023-01-01T01:23:52.104Z,17.75
2023-01-01T01:26:37.446Z,17.27
2023-01-01T01:29:23.981Z,13.55
2023-01-01T01:32:11.647Z,16.60
2023-01-01T01:34:56.948Z,15.25
2023-01-01T01:37:42.483Z,12.68
2023-01-01T01:40:27.999Z,13.45
2023-01-01T01:43:47.074Z,13.93
2023-01-01T01:46:40.225Z,10.27
2023-01-01T01:49:31.906Z,13.05
2023-01-01T01:52:17.722Z,17.92
2023-01-01T01:55:07.809Z,11.25
2023-01-01T01:57:53.604Z,14.15
2023-01-01T02:00:38.926Z,10.40
2023-01-01T02:03:43.455Z,13.43
2023-01-01T02:06:30.885Z,12.23
2023-01-01T02:09:16.700Z,12.07
2023-01-01T02:12:02.070Z,10.82
2023-01-01T02:14:47.893Z,9.73
2023-01-01T02:17:58.909Z,10.18
2023-01-01T02:21:06.209Z,13.13
2023-01-01T02:24:06.567Z,8.85
2023-01-01T02:27:07.232Z,7.85
2023-01-01T02:30:01.906Z,12.35
2023-01-01T02:32:52.108Z,13.95
2023-01-01T02:35:42.722Z,11.65
2023-01-01T02:38:51.013Z,13.30
2023-01-01T02:41:43.189Z,11.05
2023-01-01T02:44:31.283Z,15.02
2023-01-01T02:47:19.133Z,8.77
2023-01-01T02:50:22.077Z,9.27
2023-01-01T02:53:18.656Z,9.10
2023-01-01T02:56:29.397Z,7.32
2023-01-01T02:59:39.825Z,9.88
2023-01-01T03:02:50.950Z,9.82
2023-01-01T03:06:14.029Z,7.50
2023-01-01T03:09:20.625Z,8.80
2023-01-01T03:12:22.126Z,8.65
2023-01-01T03:15:17.099Z,10.73
2023-01-01T03:18:05.215Z,8.63
2023-01-01T03:20:54.583Z,7.40
2023-01-01T03:23:49.706Z,10.20
2023-01-01T03:26:37.297Z,8.32
2023-01-01T03:29:24.739Z,9.77
2023-01-01T03:32:15.533Z,8.05
2023-01-01T03:35:00.729Z,8.70
2023-01-01T03:37:49.502Z,10.90
2023-01-01T03:40:37.883Z,5.53
2023-01-01T03:43:44.735Z,8.70
2023-01-01T03:46:34.367Z,9.73
2023-01-01T03:49:20.247Z,10.95
2023-01-01T03:52:32.148Z,9.52
2023-01-01T03:55:38.304Z,8.48
2023-01-01T03:58:54.046Z,6.00
2023-01-01T04:01:44.688Z,5.13
2023-01-01T04:04:31.153Z,8.80
2023-01-01T04:07:16.647Z,6.13
2023-01-01T04:10:16.983Z,8.55
2023-01-01T04:13:04.220Z,7.28
2023-01-01T04:15:49.884Z,12.35
2023-01-01T04:18:35.239Z,8.55
2023-01-01T04:21:20.589Z,6.05
2023-01-01T04:24:06.257Z,7.80
2023-01-01T04:26:52.885Z,6.07
2023-01-01T04:29:41.751Z,9.73
2023-01-01T04:32:26.849Z,5.50
2023-01-01T04:35:14.640Z,3.42
2023-01-01T04:38:00.577Z,5.00
2023-01-01T04:40:45.728Z,7.63
2023-01-01T04:43:32.083Z,5.70
2023-01-01T04:46:19.468Z,7.32
2023-01-01T04:49:04.956Z,8.38
2023-01-01T04:51:50.527Z,6.30
2023-01-01T04:54:35.945Z,6.28
2023-01-01T04:57:21.396Z,6.82
2023-01-01T05:00:07.477Z,9.25
2023-01-01T05:02:52.746Z,6.72
2023-01-01T05:05:38.029Z,5.25
2023-01-01T05:08:23.389Z,5.78
2023-01-01T05:11:12.241Z,3.70
2023-01-01T05:14:01.511Z,5.30
2023-01-01T05:16:46.739Z,4.28
2023-01-01T05:19:32.319Z,10.18
2023-01-01T05:22:17.652Z,7.10
2023-01-01T05:25:03.284Z,8.25
2023-01-01T05:27:48.486Z,6.45
2023-01-01T05:30:33.900Z,8.43
2023-01-01T05:33:20.026Z,10.88
2023-01-01T05:36:07.363Z,10.70
2023-01-01T05:38:53.457Z,10.30
2023-01-01T05:41:39.999Z,12.25
2023-01-01T05:44:25.307Z,11.57
2023-01-01T05:47:10.588Z,9.45
2023-01-01T05:49:56.035Z,11.50
2023-01-01T05:52:41.288Z,14.50
2023-01-01T05:55:26.755Z,15.90
2023-01-01T05:58:11.964Z,13.30
2023-01-01T06:00:57.513Z,10.18
2023-01-01T06:03:43.538Z,12.63
2023-01-01T06:06:31.191Z,10.55
2023-01-01T06:09:16.610Z,10.93
2023-01-01T06:12:01.941Z,11.27
2023-01-01T06:14:47.329Z,11.75
2023-01-01T06:17:34.219Z,10.88
2023-01-01T06:20:19.349Z,14.13
2023-01-01T06:23:04.772Z,12.63
2023-01-01T06:25:52.757Z,11.10
2023-01-01T06:28:38.325Z,8.90
2023-01-01T06:31:23.982Z,11.48
2023-01-01T06:34:09.418Z,12.60
2023-01-01T06:36:54.783Z,12.95
2023-01-01T06:39:40.186Z,12.68
2023-01-01T06:42:30.369Z,11.70
2023-01-01T06:45:18.697Z,12.10
2023-01-01T06:48:04.331Z,8.50
2023-01-01T06:50:49.600Z,13.75
2023-01-01T06:53:35.565Z,15.27
2023-01-01T06:56:21.840Z,17.27
2023-01-01T06:59:07.678Z,17.52
2023-01-01T07:01:53.199Z,13.65
2023-01-01T07:04:39.310Z,15.40
2023-01-01T07:07:24.584Z,16.98
2023-01-01T07:10:10.204Z,17.33
2023-01-01T07:12:55.777Z,17.08
2023-01-01T07:15:41.310Z,16.10
2023-01-01T07:18:26.736Z,14.98
2023-01-01T07:21:40.620Z,21.10
2023-01-01T07:24:25.853Z,16.70
2023-01-01T07:27:11.161Z,16.73
2023-01-01T07:29:56.514Z,13.77
2023-01-01T07:32:41.631Z,12.15
2023-01-01T07:35:26.977Z,15.18
2023-01-01T07:38:13.522Z,18.17
2023-01-01T07:40:59.013Z,18.50
2023-01-01T07:43:44.434Z,18.38
2023-01-01T07:46:30.167Z,16.92
2023-01-01T07:49:16.709Z,13.80
2023-01-01T07:52:02.088Z,17.48
2023-01-01T07:54:47.341Z,12.43
2023-01-01T07:57:32.745Z,12.98
2023-01-01T08:00:20.159Z,15.70
2023-01-01T08:03:06.926Z,12.00
2023-01-01T08:05:52.244Z,18.02
2023-01-01T08:08:37.821Z,13.27
2023-01-01T08:11:22.976Z,20.50
2023-01-01T08:14:08.458Z,16.90
2023-01-01T08:16:53.912Z,18.40
2023-01-01T08:19:39.391Z,13.57
2023-01-01T08:22:24.838Z,10.73
2023-01-01T08:25:10.484Z,13.10
2023-01-01T08:27:55.749Z,10.15
2023-01-01T08:30:41.297Z,12.02
2023-01-01T08:33:26.688Z,13.90
2023-01-01T08:36:13.976Z,14.50
2023-01-01T08:38:59.518Z,12.07
2023-01-01T08:41:44.679Z,12.85
2023-01-01T08:44:30.121Z,10.18
2023-01-01T08:47:25.220Z,14.50
2023-01-01T08:50:10.637Z,16.38
2023-01-01T08:52:59.210Z,12.15
2023-01-01T08:55:44.239Z,11.65
2023-01-01T08:58:30.575Z,9.27
2023-01-01T09:01:16.028Z,14.80
2023-01-01T09:04:02.872Z,11.57
2023-01-01T09:06:48.403Z,7.85
2023-01-01T09:09:33.705Z,14.23
2023-01-01T09:12:19.174Z,11.25
2023-01-01T09:15:05.106Z,14.02
2023-01-01T09:17:50.346Z,8.05
2023-01-01T09:20:36.682Z,9.93
2023-01-01T09:23:22.011Z,9.50
2023-01-01T09:26:09.441Z,7.53
2023-01-01T09:28:54.866Z,9.60
2023-01-01T09:31:40.991Z,11.70
2023-01-01T09:34:26.337Z,8.23
2023-01-01T09:37:11.763Z,13.15
2023-01-01T09:39:57.761Z,7.72
2023-01-01T09:42:49.045Z,6.38
2023-01-01T09:45:42.930Z,12.07
2023-01-01T09:48:31.305Z,7.90
2023-01-01T09:51:19.637Z,9.98
2023-01-01T09:54:25.679Z,11.35
2023-01-01T09:57:19.854Z,9.07
2023-01-01T10:00:14.570Z,7.50
2023-01-01T10:03:33.255Z,8.10
2023-01-01T10:06:29.617Z,10.32
2023-01-01T10:09:27.716Z,8.05
2023-01-01T10:12:19.048Z,9.13
2023-01-01T10:15:12.994Z,8.50
2023-01-01T10:18:00.613Z,10.00
2023-01-01T10:21:20.952Z,7.18
2023-01-01T10:24:35.585Z,8.00
2023-01-01T10:27:44.161Z,10.77
2023-01-01T10:30:30.688Z,9.90
2023-01-01T10:33:15.985Z,10.48
2023-01-01T10:36:01.443Z,10.05
2023-01-01T10:38:48.698Z,9.00
2023-01-01T10:41:34.258Z,7.97
2023-01-01T10:44:30.273Z,11.27
2023-01-01T10:47:29.737Z,8.15
2023-01-01T10:50:15.120Z,8.48
2023-01-01T10:53:00.519Z,10.15
2023-01-01T10:56:01.444Z,9.98
2023-01-01T10:58:54.837Z,7.93
2023-01-01T11:01:40.688Z,7.95
2023-01-01T11:04:26.115Z,10.40
2023-01-01T11:07:30.427Z,11.45
2023-01-01T11:10:22.261Z,8.13
2023-01-01T11:13:19.177Z,9.20
2023-01-01T11:16:11.310Z,9.32
2023-01-01T11:19:06.160Z,7.82
2023-01-01T11:21:51.232Z,10.88
2023-01-01T11:24:38.238Z,9.43
2023-01-01T11:27:25.412Z,11.40
2023-01-01T11:30:28.391Z,12.82
2023-01-01T11:33:17.450Z,8.80
2023-01-01T11:36:02.749Z,10.90
2023-01-01T11:38:51.262Z,9.38
2023-01-01T11:42:03.778Z,11.25
2023-01-01T11:44:58.593Z,11.55
2023-01-01T11:47:45.824Z,13.95
2023-01-01T11:50:38.488Z,12.38
2023-01-01T11:53:24.338Z,11.68
2023-01-01T11:56:29.746Z,7.40
2023-01-01T11:59:18.441Z,7.45
2023-01-01T12:02:05.158Z,9.15
2023-01-01T12:05:21.108Z,9.95
2023-01-01T12:08:10.546Z,9.93
2023-01-01T12:11:03.369Z,11.10
2023-01-01T12:13:55.738Z,7.18
2023-01-01T12:19:57.356Z,17.13
2023-01-01T12:22:43.668Z,9.57
2023-01-01T12:25:38.268Z,9.75
2023-01-01T12:28:23.576Z,9.52
2023-01-01T12:31:24.537Z,9.32
2023-01-01T12:34:30.858Z,9.98
2023-01-01T12:37:32.353Z,7.00
2023-01-01T12:40:34.379Z,9.33
2023-01-01T12:43:39.688Z,11.20
2023-01-01T12:46:39.893Z,10.13
2023-01-01T12:49:37.935Z,11.50
2023-01-01T12:52:51.499Z,15.07
2023-01-01T12:55:52.405Z,8.75
2023-01-01T12:58:45.991Z,11.25
2023-01-01T13:01:35.064Z,5.68
2023-01-01T13:04:22.379Z,10.45
2023-01-01T13:07:12.505Z,11.02
2023-01-01T13:10:03.713Z,9.57
2023-01-01T13:12:50.630Z,8.93
2023-01-01T13:15:39.209Z,11.15
2023-01-01T13:18:35.473Z,7.63
2023-01-01T13:21:23.400Z,6.88
2023-01-01T13:24:26.004Z,9.20
2023-01-01T13:27:11.381Z,9.85
2023-01-01T13:29:56.579Z,15.57
2023-01-01T13:33:21.581Z,12.52
2023-01-01T13:36:19.630Z,11.48
2023-01-01T13:39:04.712Z,7.25
2023-01-01T13:41:50.108Z,10.77
2023-01-01T13:44:36.426Z,10.50
2023-01-01T13:47:51.293Z,9.00
2023-01-01T13:50:48.033Z,10.80
2023-01-01T13:54:00.359Z,7.15
2023-01-01T13:56:54.578Z,10.55
2023-01-01T14:00:01.663Z,7.32
2023-01-01T14:02:59.311Z,7.90
2023-01-01T14:06:10.762Z,7.65
2023-01-01T14:09:13.872Z,8.35
2023-01-01T14:12:09.921Z,7.15
2023-01-01T14:14:55.265Z,7.38
2023-01-01T14:17:42.351Z,10.38
2023-01-01T14:20:48.653Z,7.38
2023-01-01T14:23:36.351Z,8.80
2023-01-01T14:26:24.470Z,7.68
2023-01-01T14:29:16.952Z,9.00
2023-01-01T14:35:01.494Z,5.65
2023-01-01T14:37:46.600Z,12.50
2023-01-01T14:40:33.251Z,10.30
2023-01-01T14:43:19.073Z,6.30
2023-01-01T14:46:11.077Z,7.75
2023-01-01T14:49:09.727Z,7.90
2023-01-01T14:52:06.882Z,6.10
2023-01-01T14:54:53.620Z,5.28
2023-01-01T14:57:39.025Z,5.50
2023-01-01T15:00:27.708Z,5.47
2023-01-01T15:03:18.738Z,5.80
2023-01-01T15:06:06.832Z,5.82
2023-01-01T15:08:53.205Z,4.50
2023-01-01T15:11:38.711Z,4.65
2023-01-01T15:14:42.517Z,5.55
2023-01-01T15:17:28.010Z,5.70
2023-01-01T15:20:21.360Z,6.60
2023-01-01T15:23:12.726Z,5.55
2023-01-01T15:25:58.012Z,4.80
2023-01-01T15:28:43.235Z,6.30
2023-01-01T15:31:43.637Z,4.93
2023-01-01T15:34:35.528Z,6.88
2023-01-01T15:37:32.917Z,8.02
2023-01-01T15:40:18.095Z,7.32
2023-01-01T15:43:03.309Z,6.50
2023-01-01T15:45:57.785Z,6.97
2023-01-01T15:48:49.383Z,5.25
2023-01-01T15:51:34.941Z,4.70
2023-01-01T15:54:20.306Z,7.10
2023-01-01T15:57:26.365Z,3.83
2023-01-01T16:00:20.644Z,7.43
2023-01-01T16:03:19.624Z,5.43
2023-01-01T16:06:05.661Z,6.28
2023-01-01T16:08:51.010Z,7.50
2023-01-01T16:11:36.564Z,5.45
2023-01-01T16:14:22.494Z,4.93
2023-01-01T16:17:14.849Z,9.15
2023-01-01T16:20:01.053Z,5.35
2023-01-01T16:22:46.666Z,9.70
2023-01-01T16:25:32.337Z,5.57
2023-01-01T16:28:17.892Z,6.05
2023-01-01T16:31:03.393Z,5.03
2023-01-01T16:33:54.198Z,6.57
2023-01-01T16:36:39.660Z,5.70
2023-01-01T16:39:25.015Z,5.03
2023-01-01T16:42:12.596Z,9.80
2023-01-01T16:44:57.987Z,8.00
2023-01-01T16:47:43.464Z,6.45
2023-01-01T16:50:28.784Z,6.97
2023-01-01T16:53:14.098Z,4.70
2023-01-01T16:55:59.513Z,5.88
2023-01-01T16:58:50.537Z,8.05
2023-01-01T17:01:37.550Z,6.82
2023-01-01T17:04:22.807Z,4.88
2023-01-01T17:07:08.090Z,7.28
2023-01-01T17:09:53.530Z,6.78
2023-01-01T17:12:38.992Z,6.82
2023-01-01T17:15:24.626Z,8.52
2023-01-01T17:18:10.986Z,5.65
2023-01-01T17:20:56.458Z,5.10
2023-01-01T17:23:42.361Z,9.52
2023-01-01T17:26:27.407Z,10.82
2023-01-01T17:29:12.970Z,12.05
2023-01-01T17:31:58.940Z,11.82
2023-01-01T17:34:44.434Z,7.28
2023-01-01T17:37:30.887Z,6.75
2023-01-01T17:40:16.192Z,8.32
2023-01-01T17:43:01.585Z,9.23
2023-01-01T17:45:46.937Z,7.80
2023-01-01T17:48:32.310Z,7.55
2023-01-01T17:51:18.896Z,9.77
2023-01-01T17:54:06.412Z,8.07
2023-01-01T17:56:53.103Z,12.15
2023-01-01T17:59:38.449Z,9.02
2023-01-01T18:02:23.777Z,11.50
2023-01-01T18:05:09.140Z,9.52
2023-01-01T18:07:55.052Z,7.72
2023-01-01T18:10:40.099Z,10.00
2023-01-01T18:13:25.649Z,13.98
2023-01-01T18:16:11.332Z,7.53
2023-01-01T18:18:57.156Z,10.38
2023-01-01T18:21:43.105Z,5.13
2023-01-01T18:24:28.434Z,8.45
2023-01-01T18:27:13.873Z,8.15
2023-01-01T18:29:59.447Z,8.07
2023-01-01T18:32:44.829Z,6.15
2023-01-01T18:35:30.416Z,10.82
2023-01-01T18:38:17.286Z,12.73
2023-01-01T18:41:24.760Z,11.90
2023-01-01T18:44:21.916Z,9.00
2023-01-01T18:47:07.029Z,9.93
2023-01-01T18:50:07.974Z,8.90
2023-01-01T18:53:09.968Z,8.30
2023-01-01T18:56:14.414Z,10.10
2023-01-01T18:58:59.937Z,10.63
2023-01-01T19:01:46.455Z,9.63
2023-01-01T19:04:32.030Z,9.27
2023-01-01T19:07:17.646Z,9.98
2023-01-01T19:10:10.688Z,7.90
2023-01-01T19:12:56.213Z,10.02
2023-01-01T19:15:43.901Z,9.63
2023-01-01T19:18:31.923Z,11.02
2023-01-01T19:21:22.785Z,9.38
2023-01-01T19:24:19.178Z,6.55
2023-01-01T19:27:17.644Z,8.20
2023-01-01T19:30:23.078Z,6.63
2023-01-01T19:33:08.722Z,6.95
2023-01-01T19:35:53.971Z,10.68
2023-01-01T19:38:39.835Z,11.13
2023-01-01T19:41:25.559Z,8.27
2023-01-01T19:44:10.936Z,12.70
2023-01-01T19:46:57.564Z,8.05
2023-01-01T19:49:43.039Z,10.75
2023-01-01T19:52:28.308Z,10.85
2023-01-01T19:55:13.930Z,11.45
2023-01-01T19:57:58.991Z,10.45
2023-01-01T20:00:44.378Z,8.25
2023-01-01T20:06:36.366Z,8.80
2023-01-01T20:09:21.712Z,9.20
2023-01-01T20:12:07.178Z,9.50
2023-01-01T20:14:53.820Z,9.25
2023-01-01T20:17:39.865Z,9.30
2023-01-01T20:20:25.038Z,9.13
2023-01-01T20:23:10.326Z,6.78
2023-01-01T20:25:55.876Z,7.10
2023-01-01T20:29:00.371Z,7.28
2023-01-01T20:31:47.079Z,9.43
2023-01-01T20:34:32.313Z,12.10
2023-01-01T20:37:36.140Z,10.40
2023-01-01T20:40:21.502Z,9.38
2023-01-01T20:43:07.128Z,8.20
2023-01-01T20:45:52.593Z,8.25
2023-01-01T20:48:38.001Z,7.78
2023-01-01T20:51:23.436Z,7.93
2023-01-01T20:54:09.504Z,7.55
2023-01-01T20:56:54.997Z,7.20
2023-01-01T20:59:40.584Z,7.43
2023-01-01T21:02:26.462Z,8.18
2023-01-01T21:05:11.612Z,6.65
2023-01-01T21:07:57.185Z,9.82
2023-01-01T21:10:42.745Z,9.50
2023-01-01T21:13:28.108Z,8.68
2023-01-01T21:16:24.351Z,9.20
2023-01-01T21:19:10.380Z,8.65
2023-01-01T21:21:56.751Z,8.25
2023-01-01T21:24:41.930Z,6.85
2023-01-01T21:27:33.910Z,6.68
2023-01-01T21:30:20.967Z,5.85
2023-01-01T21:33:14.762Z,7.20
2023-01-01T21:36:05.361Z,7.15
2023-01-01T21:38:52.026Z,6.95
2023-01-01T21:41:37.919Z,5.78
2023-01-01T21:44:23.421Z,6.28
2023-01-01T21:47:23.835Z,7.75
2023-01-01T21:50:23.961Z,9.07
2023-01-01T21:53:16.253Z,7.45
2023-01-01T21:56:17.628Z,6.80
2023-01-01T21:59:33.337Z,7.65
2023-01-01T22:02:34.299Z,7.45
2023-01-01T22:05:31.345Z,7.10
2023-01-01T22:08:24.905Z,7.20
2023-01-01T22:11:26.833Z,7.05
2023-01-01T22:14:18.216Z,6.20
2023-01-01T22:17:16.764Z,7.18
2023-01-01T22:20:24.809Z,5.43
2023-01-01T22:23:24.178Z,6.50
2023-01-01T22:26:17.267Z,7.43
2023-01-01T22:29:14.395Z,6.28
2023-01-01T22:32:11.895Z,8.18
2023-01-01T22:35:23.581Z,6.78
2023-01-01T22:38:21.067Z,7.03
2023-01-01T22:41:07.885Z,8.40
2023-01-01T22:43:58.185Z,5.22
2023-01-01T22:46:43.802Z,5.20
2023-01-01T22:49:35.794Z,7.78
2023-01-01T22:52:21.362Z,8.65
2023-01-01T22:55:07.256Z,8.60
2023-01-01T22:57:52.592Z,6.65
2023-01-01T23:00:37.922Z,7.70
2023-01-01T23:03:23.570Z,5.65
2023-01-01T23:06:09.106Z,6.30
2023-01-01T23:08:55.275Z,5.65
2023-01-01T23:11:40.873Z,5.30
2023-01-01T23:14:44.852Z,6.35
2023-01-01T23:17:30.558Z,5.75
2023-01-01T23:20:16.079Z,5.85
2023-01-01T23:23:01.618Z,7.07
2023-01-01T23:25:47.297Z,7.60
2023-01-01T23:28:32.935Z,9.10
2023-01-01T23:31:25.175Z,7.03
2023-01-01T23:36:57.625Z,7.22
2023-01-01T23:39:42.841Z,7.35
2023-01-01T23:42:28.391Z,7.85
2023-01-01T23:45:13.906Z,7.43
2023-01-01T23:47:59.393Z,6.80
2023-01-01T23:50:46.286Z,7.85
2023-01-01T23:53:31.649Z,9.88
2023-01-01T23:56:16.897Z,8.10
2023-01-01T23:59:02.281Z,7.32
